Time;durP1;ratioP1;P1;durP2;ratioP2;P2;SDS_P1;SDS_P2;PMS_P1;PMS_P2;Temp;Humidity;BMP_temperature;BMP_pressure;BME280_temperature;BME280_humidity;BME280_pressure;Samples;Min_cycle;Max_cycle;Signal;HPM_P1;HPM_P2
2022/04/01 00:00:14;;;;;;;24.37;14.40;;;5.40;99.90;;;;;;4955589;29;20513;-72
2022/04/01 00:02:40;;;;;;;29.20;14.83;;;5.40;99.90;;;;;;4955835;28;20217;-72
2022/04/01 00:05:06;;;;;;;28.37;14.50;;;5.40;99.90;;;;;;4955536;29;20417;-72
2022/04/01 00:07:36;;;;;;;19.27;13.07;;;5.30;99.90;;;;;;4955915;29;20169;-72
2022/04/01 00:10:03;;;;;;;18.20;12.23;;;5.30;99.90;;;;;;4955414;28;20426;-71
2022/04/01 00:12:29;;;;;;;21.50;14.53;;;5.20;99.90;;;;;;4955510;28;20442;-71
2022/04/01 00:14:55;;;;;;;20.17;13.00;;;5.30;99.90;;;;;;4955494;29;20453;-71
2022/04/01 00:17:21;;;;;;;18.93;12.67;;;5.30;99.90;;;;;;4955595;28;20172;-71
2022/04/01 00:19:46;;;;;;;21.93;13.17;;;5.30;99.90;;;;;;4955423;28;20499;-71
2022/04/01 00:22:12;;;;;;;23.80;13.20;;;5.30;99.90;;;;;;4955169;29;20723;-70
2022/04/01 00:24:37;;;;;;;24.90;13.67;;;5.20;99.90;;;;;;4955480;29;20182;-71
2022/04/01 00:27:03;;;;;;;22.83;13.20;;;5.20;99.90;;;;;;4955571;29;20174;-71
2022/04/01 00:29:28;;;;;;;22.17;13.30;;;5.20;99.90;;;;;;4955398;28;20655;-72
2022/04/01 00:32:01;;;;;;;24.10;14.00;;;5.20;99.90;;;;;;4955121;29;20586;-71
2022/04/01 00:34:31;;;;;;;20.63;13.10;;;5.20;99.90;;;;;;4956427;28;20943;-70
2022/04/01 00:36:58;;;;;;;19.53;11.93;;;5.20;99.90;;;;;;4956298;28;20542;-72
2022/04/01 00:39:25;;;;;;;20.90;13.30;;;5.20;99.90;;;;;;4955561;28;20457;-71
2022/04/01 00:41:52;;;;;;;21.87;13.60;;;5.20;99.90;;;;;;4955424;28;20409;-71
2022/04/01 00:44:26;;;;;;;20.73;12.87;;;5.20;99.90;;;;;;4955951;28;20435;-71
2022/04/01 00:46:55;;;;;;;25.83;14.30;;;5.20;99.90;;;;;;4955730;28;20486;-71
2022/04/01 00:49:21;;;;;;;19.37;12.50;;;5.20;99.90;;;;;;4955019;28;20423;-71
2022/04/01 00:51:49;;;;;;;21.20;13.07;;;5.20;99.90;;;;;;4954755;28;20408;-71
2022/04/01 00:54:16;;;;;;;21.40;12.23;;;5.10;99.90;;;;;;4954766;28;20416;-72
2022/04/01 00:56:42;;;;;;;21.10;12.30;;;5.10;99.90;;;;;;4955016;28;20405;-69
2022/04/01 00:59:08;;;;;;;19.37;12.03;;;5.10;99.90;;;;;;4953421;28;20416;-72
2022/04/01 02:32:12;;;;;;;17.83;11.67;;;4.50;99.90;;;;;;5371171;23;20499;-73
2022/04/01 02:34:37;;;;;;;15.50;10.33;;;4.50;99.90;;;;;;4951541;28;20882;-75
2022/04/01 02:37:04;;;;;;;18.43;11.93;;;4.50;99.90;;;;;;4953099;28;20413;-74
2022/04/01 02:39:30;;;;;;;18.80;12.70;;;4.50;99.90;;;;;;4949283;28;20186;-75
2022/04/01 02:41:56;;;;;;;18.20;12.40;;;4.60;99.90;;;;;;4948978;28;20532;-74
2022/04/01 02:44:21;;;;;;;18.63;11.27;;;4.60;99.90;;;;;;4953274;28;20587;-73
2022/04/01 02:46:47;;;;;;;16.03;10.57;;;4.50;99.90;;;;;;4953153;28;20181;-73
2022/04/01 02:49:16;;;;;;;20.53;11.53;;;4.50;99.90;;;;;;4952028;28;20244;-74
2022/04/01 02:51:44;;;;;;;19.13;11.03;;;4.60;99.90;;;;;;4952718;28;20445;-73
2022/04/01 02:54:10;;;;;;;16.13;11.27;;;4.50;99.90;;;;;;4952986;28;20860;-74
2022/04/01 02:56:38;;;;;;;20.60;12.60;;;4.50;99.90;;;;;;4952983;28;20423;-73
2022/04/01 02:59:07;;;;;;;15.67;11.30;;;4.50;99.90;;;;;;4953218;28;20913;-75
2022/04/01 03:01:32;;;;;;;15.00;11.10;;;4.50;99.90;;;;;;4951860;28;20886;-74
2022/04/01 03:03:58;;;;;;;15.37;10.63;;;4.50;99.90;;;;;;4953317;28;20453;-74
2022/04/01 03:06:24;;;;;;;16.50;11.67;;;4.40;99.90;;;;;;4953294;28;20419;-75
2022/04/01 03:08:50;;;;;;;14.93;10.80;;;4.40;99.90;;;;;;4952978;29;20625;-73
2022/04/01 03:11:17;;;;;;;14.87;10.83;;;4.40;99.90;;;;;;4952829;28;20206;-74
2022/04/01 03:13:43;;;;;;;16.63;11.07;;;4.40;99.90;;;;;;4952876;28;20423;-75
2022/04/01 03:16:09;;;;;;;13.80;10.23;;;4.50;99.90;;;;;;4953131;28;20478;-74
2022/04/01 03:18:40;;;;;;;16.13;11.40;;;4.40;99.90;;;;;;4952931;28;20782;-75
2022/04/01 03:21:07;;;;;;;19.23;11.97;;;4.40;99.90;;;;;;4952998;28;20447;-74
2022/04/01 03:23:32;;;;;;;15.20;10.70;;;4.40;99.90;;;;;;4954580;28;20808;-74
2022/04/01 03:25:58;;;;;;;13.17;10.80;;;4.50;99.90;;;;;;4956859;29;20416;-74
2022/04/01 03:28:24;;;;;;;15.40;11.13;;;4.40;99.90;;;;;;4956771;29;20174;-74
2022/04/01 03:30:51;;;;;;;15.07;11.93;;;4.40;99.90;;;;;;4956927;28;20438;-73
2022/04/01 03:33:17;;;;;;;19.03;12.20;;;4.40;99.90;;;;;;4956385;28;20183;-74
2022/04/01 03:35:43;;;;;;;15.93;11.97;;;4.40;99.90;;;;;;4956304;28;20463;-73
2022/04/01 03:38:11;;;;;;;23.03;14.60;;;4.40;99.90;;;;;;4956325;29;20453;-73
2022/04/01 03:40:39;;;;;;;21.40;13.97;;;4.40;99.90;;;;;;4955717;28;20258;-74
2022/04/01 03:43:05;;;;;;;28.30;15.90;;;4.40;99.90;;;;;;4956450;28;20931;-74
2022/04/01 03:45:31;;;;;;;23.30;16.00;;;4.40;99.90;;;;;;4955959;28;20412;-74
2022/04/01 03:48:03;;;;;;;26.87;15.87;;;4.40;99.90;;;;;;4956317;28;20471;-74
2022/04/01 03:50:32;;;;;;;26.77;16.70;;;4.40;99.90;;;;;;4955619;28;20211;-70
2022/04/01 03:53:08;;;;;;;20.20;14.40;;;4.50;99.90;;;;;;4956193;28;20475;-74
2022/04/01 03:55:41;;;;;;;29.27;17.23;;;4.50;99.90;;;;;;4955687;28;20693;-73
2022/04/01 03:58:09;;;;;;;26.80;17.57;;;4.50;99.90;;;;;;4954855;29;20459;-73
2022/04/01 04:00:36;;;;;;;28.50;16.53;;;4.50;99.90;;;;;;4955367;28;20447;-72
2022/04/01 04:03:07;;;;;;;33.40;17.77;;;4.40;99.90;;;;;;4956063;28;20407;-75
2022/04/01 04:05:38;;;;;;;27.47;16.50;;;4.40;99.90;;;;;;4955556;28;20426;-74
2022/04/01 04:08:07;;;;;;;25.90;17.27;;;4.40;99.90;;;;;;4956012;28;20426;-74
2022/04/01 04:10:34;;;;;;;26.00;14.67;;;4.40;99.90;;;;;;4955277;28;20917;-73
2022/04/01 04:13:04;;;;;;;27.00;16.43;;;4.40;99.90;;;;;;4955922;28;20916;-74
2022/04/01 04:15:52;;;;;;;24.30;14.30;;;4.40;99.90;;;;;;4955460;28;20480;-74
2022/04/01 04:18:20;;;;;;;24.53;13.90;;;4.30;99.90;;;;;;4945101;29;20428;-74
2022/04/01 04:21:25;;;;;;;23.23;15.30;;;4.30;99.90;;;;;;4954996;28;20419;-74
2022/04/01 04:23:56;;;;;;;26.77;15.60;;;4.20;99.90;;;;;;4926087;28;20794;-74
2022/04/01 04:26:48;;;;;;;23.77;14.50;;;4.20;99.90;;;;;;4955324;28;20977;-74
2022/04/01 04:29:16;;;;;;;22.40;13.50;;;4.20;99.90;;;;;;4953083;29;20461;-74
2022/04/01 04:31:57;;;;;;;24.13;14.47;;;4.20;99.90;;;;;;4954857;28;20473;-74
2022/04/01 04:34:26;;;;;;;24.00;13.37;;;4.20;99.90;;;;;;4954898;28;20924;-75
2022/04/01 04:36:56;;;;;;;25.57;14.97;;;4.10;99.90;;;;;;4955324;28;21134;-74
2022/04/01 04:39:33;;;;;;;22.43;13.63;;;4.20;99.90;;;;;;4955317;28;20440;-74
2022/04/01 04:42:01;;;;;;;20.07;12.63;;;4.10;99.90;;;;;;4954926;28;20959;-73
2022/04/01 04:44:29;;;;;;;22.60;13.57;;;4.10;99.90;;;;;;4955079;28;20424;-75
2022/04/01 04:46:59;;;;;;;19.80;13.70;;;4.10;99.90;;;;;;4955228;28;20419;-74
2022/04/01 04:49:29;;;;;;;19.70;12.80;;;4.10;99.90;;;;;;4954955;28;20434;-74
2022/04/01 04:51:56;;;;;;;20.97;12.40;;;4.10;99.90;;;;;;4954955;28;20449;-74
2022/04/01 04:54:26;;;;;;;20.73;12.73;;;4.10;99.90;;;;;;4954767;28;20911;-73
2022/04/01 04:56:55;;;;;;;21.00;12.07;;;4.10;99.90;;;;;;4955097;28;20963;-73
2022/04/01 04:59:22;;;;;;;28.53;13.73;;;4.10;99.90;;;;;;4954617;28;20472;-73
2022/04/01 05:02:14;;;;;;;22.50;13.50;;;4.00;99.90;;;;;;4954656;28;20437;-75
2022/04/01 05:05:04;;;;;;;25.90;14.80;;;4.10;99.90;;;;;;4927036;28;20433;-74
2022/04/01 05:07:48;;;;;;;28.90;14.20;;;4.10;99.90;;;;;;4954685;28;20931;-75
2022/04/01 05:10:24;;;;;;;26.93;14.80;;;4.00;99.90;;;;;;4954749;29;20388;-74
2022/04/01 05:13:03;;;;;;;26.80;15.90;;;4.00;99.90;;;;;;4954590;28;20809;-78
2022/04/01 05:15:36;;;;;;;24.50;13.50;;;4.00;99.90;;;;;;4968192;28;20461;-76
2022/04/01 05:18:12;;;;;;;25.47;14.40;;;4.00;99.90;;;;;;4960738;29;20420;-75
2022/04/01 05:21:00;;;;;;;30.07;16.40;;;3.90;99.90;;;;;;4953987;28;20402;-76
2022/04/01 05:23:51;;;;;;;25.23;14.50;;;3.90;99.90;;;;;;4954330;28;20416;-76
2022/04/01 05:26:22;;;;;;;23.70;14.90;;;3.90;99.90;;;;;;4957576;28;20840;-75
2022/04/01 05:28:52;;;;;;;19.67;13.07;;;3.90;99.90;;;;;;4955670;28;20946;-76
2022/04/01 05:31:35;;;;;;;24.43;13.37;;;3.80;99.90;;;;;;4953646;28;20464;-75
2022/04/01 05:34:12;;;;;;;21.40;13.40;;;3.80;99.90;;;;;;4954249;28;20419;-76
2022/04/01 05:36:37;;;;;;;20.70;13.13;;;3.80;99.90;;;;;;4953769;29;20426;-75
2022/04/01 05:39:04;;;;;;;26.37;15.30;;;3.80;99.90;;;;;;4954379;29;20830;-75
2022/04/01 05:41:30;;;;;;;22.60;13.23;;;3.70;99.90;;;;;;4953647;28;20290;-75
2022/04/01 05:43:57;;;;;;;22.93;14.80;;;3.70;99.90;;;;;;4954257;28;20410;-75
2022/04/01 05:46:25;;;;;;;22.77;14.93;;;3.70;99.90;;;;;;4953119;28;20513;-75
2022/04/01 05:48:52;;;;;;;23.97;13.40;;;3.70;99.90;;;;;;4954177;28;20422;-77
2022/04/01 05:51:18;;;;;;;23.20;13.37;;;3.70;99.90;;;;;;4953319;28;20451;-75
2022/04/01 05:53:47;;;;;;;24.50;14.30;;;3.70;99.90;;;;;;4954068;28;20913;-76
2022/04/01 05:56:14;;;;;;;22.87;12.97;;;3.70;99.90;;;;;;4953751;28;20553;-75
2022/04/01 05:58:40;;;;;;;22.80;13.20;;;3.60;99.90;;;;;;4953897;28;20451;-75
2022/04/01 06:01:27;;;;;;;24.83;13.87;;;3.70;99.90;;;;;;4953436;28;20404;-76
2022/04/01 06:04:11;;;;;;;20.43;13.60;;;3.70;99.90;;;;;;4954097;28;20450;-75
2022/04/01 06:06:45;;;;;;;22.30;14.23;;;3.60;99.90;;;;;;4953412;28;20414;-76
2022/04/01 06:09:39;;;;;;;21.60;14.00;;;3.50;99.90;;;;;;4953844;28;20409;-76
2022/04/01 06:12:32;;;;;;;22.10;14.03;;;3.60;99.90;;;;;;4953524;28;20436;-75
2022/04/01 06:15:14;;;;;;;22.30;13.43;;;3.60;99.90;;;;;;4953718;28;20556;-76
2022/04/01 06:17:51;;;;;;;20.20;13.10;;;3.60;99.90;;;;;;4953452;28;20494;-75
2022/04/01 06:20:20;;;;;;;21.53;12.87;;;3.60;99.90;;;;;;4953800;28;20900;-76
2022/04/01 06:22:52;;;;;;;24.60;12.70;;;3.60;99.90;;;;;;4953367;28;20439;-75
2022/04/01 06:25:23;;;;;;;26.00;15.87;;;3.60;99.90;;;;;;4953542;28;20414;-75
2022/04/01 06:27:53;;;;;;;22.47;14.70;;;3.50;99.90;;;;;;4953522;28;20415;-75
2022/04/01 06:30:21;;;;;;;23.97;13.67;;;3.50;99.90;;;;;;4953359;28;20458;-75
2022/04/01 06:32:55;;;;;;;19.57;13.87;;;3.60;99.90;;;;;;4953068;28;20461;-76
2022/04/01 06:35:35;;;;;;;22.53;14.63;;;3.50;99.90;;;;;;4953350;28;20469;-75
2022/04/01 06:38:02;;;;;;;25.73;15.60;;;3.50;99.90;;;;;;4952096;28;20410;-75
2022/04/01 06:40:38;;;;;;;26.07;15.53;;;3.50;99.90;;;;;;4953062;28;20427;-75
2022/04/01 06:43:04;;;;;;;24.40;14.90;;;3.50;99.90;;;;;;4953397;28;20410;-75
2022/04/01 06:45:30;;;;;;;23.53;14.20;;;3.50;99.90;;;;;;4951962;28;20441;-75
2022/04/01 06:47:56;;;;;;;27.37;15.77;;;3.50;99.90;;;;;;4953388;28;20512;-75
2022/04/01 06:50:21;;;;;;;28.80;18.17;;;3.50;99.90;;;;;;4953182;29;20705;-76
2022/04/01 06:52:47;;;;;;;28.87;16.50;;;3.50;99.90;;;;;;4953051;28;20679;-76
2022/04/01 06:55:13;;;;;;;30.97;16.63;;;3.50;99.90;;;;;;4953062;28;20216;-75
2022/04/01 06:57:39;;;;;;;29.13;16.40;;;3.50;99.90;;;;;;4954650;28;20597;-75
2022/04/01 07:00:11;;;;;;;30.73;17.00;;;3.50;99.90;;;;;;4955747;28;20184;-74
2022/04/01 07:02:37;;;;;;;27.70;15.80;;;3.40;99.90;;;;;;4956830;28;20300;-75
2022/04/01 07:05:03;;;;;;;26.83;16.40;;;3.50;99.90;;;;;;4956897;28;20506;-75
2022/04/01 07:07:29;;;;;;;22.13;14.97;;;3.40;99.90;;;;;;4956876;28;20265;-75
2022/04/01 07:09:55;;;;;;;24.77;15.70;;;3.50;99.90;;;;;;4957497;28;20526;-75
2022/04/01 07:12:21;;;;;;;24.00;15.00;;;3.50;99.90;;;;;;4956635;28;20199;-75
2022/04/01 07:14:47;;;;;;;27.67;16.87;;;3.50;99.90;;;;;;4956884;28;20202;-75
2022/04/01 07:17:12;;;;;;;27.60;16.27;;;3.50;99.90;;;;;;4956924;29;20758;-75
2022/04/01 07:19:38;;;;;;;25.67;16.00;;;3.50;99.90;;;;;;4956498;28;20332;-75
2022/04/01 07:22:05;;;;;;;25.83;14.57;;;3.50;99.90;;;;;;4957257;28;20228;-75
2022/04/01 07:24:32;;;;;;;23.53;16.30;;;3.50;99.90;;;;;;4959303;28;20177;-75
2022/04/01 07:26:58;;;;;;;25.83;15.90;;;3.50;99.90;;;;;;4955076;29;20420;-75
2022/04/01 07:29:23;;;;;;;29.83;16.87;;;3.50;99.90;;;;;;4956401;28;20862;-75
2022/04/01 07:34:37;;;;;;;25.73;16.13;;;3.50;99.90;;;;;;4956499;28;20234;-75
2022/04/01 07:37:03;;;;;;;26.80;17.10;;;3.50;99.90;;;;;;4955904;28;20425;-75
2022/04/01 07:39:29;;;;;;;27.30;18.03;;;3.50;99.90;;;;;;4955859;28;20797;-75
2022/04/01 07:41:54;;;;;;;25.97;16.00;;;3.50;99.90;;;;;;4955569;28;20428;-75
2022/04/01 07:44:21;;;;;;;28.63;16.67;;;3.50;99.90;;;;;;4956366;29;20177;-76
2022/04/01 07:46:47;;;;;;;25.47;16.07;;;3.50;99.90;;;;;;4956053;28;20225;-76
2022/04/01 07:49:13;;;;;;;28.50;15.30;;;3.50;99.90;;;;;;4956342;28;20384;-75
2022/04/01 07:51:38;;;;;;;25.20;15.80;;;3.50;99.90;;;;;;4955504;28;20630;-75
2022/04/01 07:54:04;;;;;;;25.83;16.20;;;3.50;99.90;;;;;;4956123;28;20174;-74
2022/04/01 07:56:32;;;;;;;24.60;15.30;;;3.50;99.90;;;;;;4955968;28;20201;-74
2022/04/01 07:58:58;;;;;;;36.63;16.47;;;3.50;99.90;;;;;;4956013;28;20523;-75
2022/04/01 08:01:24;;;;;;;22.60;15.33;;;3.50;99.90;;;;;;4955629;28;20454;-75
2022/04/01 08:03:50;;;;;;;26.53;16.20;;;3.50;99.90;;;;;;4955803;28;20380;-76
2022/04/01 08:06:15;;;;;;;27.23;16.80;;;3.50;99.90;;;;;;4955923;29;20190;-75
2022/04/01 08:08:41;;;;;;;28.97;17.10;;;3.50;99.90;;;;;;4955433;28;20719;-75
2022/04/01 08:11:06;;;;;;;24.60;15.50;;;3.50;99.90;;;;;;4955305;28;20207;-75
2022/04/01 08:13:33;;;;;;;28.63;16.80;;;3.50;99.90;;;;;;4955705;29;20188;-75
2022/04/01 08:15:59;;;;;;;27.17;16.73;;;3.50;99.90;;;;;;4954349;28;20582;-75
2022/04/01 08:18:24;;;;;;;27.23;16.57;;;3.40;99.90;;;;;;4955837;28;20545;-75
2022/04/01 08:20:50;;;;;;;27.40;17.50;;;3.40;99.90;;;;;;4955287;28;20449;-75
2022/04/01 08:23:16;;;;;;;27.97;15.50;;;3.40;99.90;;;;;;4955673;29;20253;-76
2022/04/01 08:25:42;;;;;;;26.57;15.43;;;3.40;99.90;;;;;;4955680;28;20177;-75
2022/04/01 08:28:08;;;;;;;30.80;15.30;;;3.40;99.90;;;;;;4955279;28;20437;-75
2022/04/01 08:30:34;;;;;;;22.57;15.20;;;3.40;99.90;;;;;;4955187;28;20217;-75
2022/04/01 08:33:00;;;;;;;31.60;15.83;;;3.40;99.90;;;;;;4955161;28;20463;-76
2022/04/01 08:35:26;;;;;;;24.97;15.20;;;3.40;99.90;;;;;;4955241;28;20533;-75
2022/04/01 08:37:54;;;;;;;24.57;16.37;;;3.40;99.90;;;;;;4955244;28;20496;-75
2022/04/01 08:40:20;;;;;;;24.70;16.23;;;3.40;99.90;;;;;;4953997;29;20201;-75
2022/04/01 08:42:47;;;;;;;24.63;14.20;;;3.40;99.90;;;;;;4955081;28;20510;-75
2022/04/01 08:45:15;;;;;;;24.40;14.80;;;3.40;99.90;;;;;;4955297;28;20181;-75
2022/04/01 08:47:40;;;;;;;21.47;13.57;;;3.40;99.90;;;;;;4955491;28;20486;-74
2022/04/01 08:50:08;;;;;;;24.50;14.43;;;3.50;99.90;;;;;;4954888;28;20978;-75
2022/04/01 08:52:33;;;;;;;23.87;14.70;;;3.40;99.90;;;;;;4954953;28;20702;-75
2022/04/01 08:55:07;;;;;;;23.20;13.50;;;3.50;99.90;;;;;;4954700;28;20463;-75
2022/04/01 08:57:41;;;;;;;22.40;14.07;;;3.50;99.90;;;;;;4955108;28;20174;-74
2022/04/01 09:00:16;;;;;;;25.63;14.40;;;3.50;99.90;;;;;;4954755;28;20830;-75
2022/04/01 09:02:43;;;;;;;18.37;13.60;;;3.50;99.90;;;;;;4954691;28;20433;-75
2022/04/01 09:05:09;;;;;;;21.47;13.37;;;3.60;99.90;;;;;;4954711;28;20908;-75
2022/04/01 09:07:35;;;;;;;21.53;12.87;;;3.50;99.90;;;;;;4954871;28;20425;-75
2022/04/01 09:10:06;;;;;;;19.73;11.83;;;3.50;99.90;;;;;;4954457;28;20482;-75
2022/04/01 09:12:31;;;;;;;22.10;14.47;;;3.50;99.90;;;;;;4954443;28;20210;-75
2022/04/01 09:14:58;;;;;;;21.07;13.30;;;3.50;99.90;;;;;;4954395;29;20457;-75
2022/04/01 09:17:41;;;;;;;18.00;13.13;;;3.50;99.90;;;;;;4954796;28;20184;-76
2022/04/01 09:20:07;;;;;;;20.10;13.03;;;3.50;99.90;;;;;;4954897;28;20412;-76
2022/04/01 09:22:34;;;;;;;21.63;12.53;;;3.40;99.90;;;;;;4954410;28;20484;-75
2022/04/01 09:25:08;;;;;;;19.63;13.47;;;3.40;99.90;;;;;;4954491;28;20787;-76
2022/04/01 09:27:43;;;;;;;20.27;13.50;;;3.40;99.90;;;;;;4954641;28;20418;-76
2022/04/01 09:30:12;;;;;;;20.13;13.83;;;3.40;99.90;;;;;;4954198;28;20876;-76
2022/04/01 09:32:45;;;;;;;19.80;13.20;;;3.40;99.90;;;;;;4953970;28;20459;-76
2022/04/01 09:35:11;;;;;;;23.40;14.47;;;3.40;99.90;;;;;;4954234;28;20452;-76
2022/04/01 09:37:49;;;;;;;20.03;14.20;;;3.40;99.90;;;;;;4954410;28;20469;-76
2022/04/01 09:40:19;;;;;;;24.60;13.40;;;3.40;99.90;;;;;;4954391;28;20395;-76
2022/04/01 09:42:49;;;;;;;21.60;12.83;;;3.40;99.90;;;;;;4953881;28;20469;-75
2022/04/01 09:45:27;;;;;;;15.97;12.87;;;3.40;99.90;;;;;;4954163;28;20424;-75
2022/04/01 09:48:07;;;;;;;36.17;14.47;;;3.30;99.90;;;;;;4954008;28;20417;-75
2022/04/01 09:50:39;;;;;;;20.13;13.97;;;3.20;99.90;;;;;;4954066;28;20420;-75
2022/04/01 09:53:21;;;;;;;17.60;12.10;;;3.20;99.90;;;;;;4953907;28;20495;-75
2022/04/01 09:55:49;;;;;;;24.23;12.80;;;3.20;99.90;;;;;;4953856;28;20557;-75
2022/04/01 09:58:18;;;;;;;17.30;12.80;;;3.20;99.90;;;;;;4953850;28;20460;-75
2022/04/01 10:00:44;;;;;;;17.67;12.93;;;3.20;99.90;;;;;;4953756;28;20395;-75
2022/04/01 10:03:11;;;;;;;15.47;10.60;;;3.30;99.90;;;;;;4953791;28;20424;-75
2022/04/01 10:05:39;;;;;;;18.63;11.57;;;3.40;99.90;;;;;;4953983;28;20430;-75
2022/04/01 10:08:07;;;;;;;18.63;11.63;;;3.40;99.90;;;;;;4953669;28;20413;-75
2022/04/01 10:10:33;;;;;;;11.63;9.03;;;3.40;99.90;;;;;;4953755;28;20475;-75
2022/04/01 10:13:05;;;;;;;14.10;8.10;;;3.40;99.90;;;;;;4953583;28;20524;-75
2022/04/01 10:15:32;;;;;;;10.43;7.20;;;3.30;99.90;;;;;;4952636;28;20505;-76
2022/04/01 10:17:59;;;;;;;9.53;6.53;;;3.40;99.90;;;;;;4952749;28;20433;-74
2022/04/01 10:20:35;;;;;;;7.90;6.60;;;3.30;99.90;;;;;;4953433;28;20419;-74
2022/04/01 10:23:08;;;;;;;8.23;7.03;;;3.40;99.90;;;;;;4953814;28;20421;-75
2022/04/01 10:25:45;;;;;;;6.80;6.13;;;3.30;99.90;;;;;;4954980;28;20418;-75
2022/04/01 10:28:12;;;;;;;6.07;5.50;;;3.20;99.90;;;;;;4954749;28;20775;-75
2022/04/01 10:30:40;;;;;;;8.13;5.13;;;3.10;99.90;;;;;;4954084;28;20428;-74
2022/04/01 10:33:07;;;;;;;7.77;6.13;;;3.20;99.90;;;;;;4953080;28;20505;-75
2022/04/01 10:35:38;;;;;;;7.50;6.80;;;3.10;99.90;;;;;;4953944;28;20470;-75
2022/04/01 10:38:06;;;;;;;5.70;4.80;;;3.00;99.90;;;;;;4952738;28;20434;-75
2022/04/01 10:40:37;;;;;;;6.10;4.83;;;3.10;99.90;;;;;;4953463;29;20413;-75
2022/04/01 10:43:20;;;;;;;5.70;5.13;;;3.10;99.90;;;;;;4953415;28;20499;-75
2022/04/01 10:46:05;;;;;;;8.00;4.50;;;3.10;99.90;;;;;;4953125;28;20417;-74
2022/04/01 10:51:37;;;;;;;5.83;4.60;;;3.20;99.90;;;;;;4953061;28;20444;-76
2022/04/01 10:54:14;;;;;;;6.23;4.57;;;3.20;99.90;;;;;;4952764;28;20425;-73
2022/04/01 10:57:00;;;;;;;10.40;6.07;;;3.20;99.90;;;;;;4950542;28;20468;-76
2022/04/01 10:59:27;;;;;;;18.83;8.90;;;3.20;99.90;;;;;;4953455;28;20477;-74
2022/04/01 11:01:53;;;;;;;12.80;6.40;;;3.10;99.90;;;;;;4952682;28;20468;-73
2022/04/01 11:04:18;;;;;;;38.80;10.07;;;3.20;99.90;;;;;;4953186;29;20504;-76
2022/04/01 11:07:14;;;;;;;9.50;4.47;;;3.20;99.90;;;;;;4952844;29;20185;-75
2022/04/01 11:09:41;;;;;;;5.83;3.57;;;3.20;99.90;;;;;;4953021;28;20187;-75
2022/04/01 11:12:25;;;;;;;3.67;3.37;;;3.30;99.90;;;;;;4952756;28;21337;-74
2022/04/01 11:14:53;;;;;;;15.30;6.83;;;3.30;99.90;;;;;;4952575;28;20456;-79
2022/04/01 11:17:20;;;;;;;13.67;6.27;;;3.20;99.90;;;;;;4954465;28;20448;-76
2022/04/01 11:20:19;;;;;;;4.10;3.80;;;3.20;99.90;;;;;;4954979;28;20412;-76
2022/04/01 11:22:54;;;;;;;8.80;5.63;;;3.20;99.90;;;;;;4952566;28;20533;-75
2022/04/01 11:25:22;;;;;;;4.10;3.70;;;3.20;99.90;;;;;;4952432;29;20426;-77
2022/04/01 11:28:05;;;;;;;4.40;4.00;;;3.40;99.90;;;;;;4952705;29;20448;-76
2022/04/01 11:30:33;;;;;;;4.57;3.90;;;3.50;99.90;;;;;;4952795;28;20443;-75
2022/04/01 11:33:01;;;;;;;4.67;4.17;;;3.60;99.90;;;;;;4952557;28;20467;-75
2022/04/01 11:35:32;;;;;;;3.77;3.53;;;3.70;99.90;;;;;;4950447;28;21020;-75
2022/04/01 11:37:59;;;;;;;4.00;3.70;;;3.60;99.90;;;;;;4951207;28;20455;-75
2022/04/01 11:40:27;;;;;;;4.43;4.13;;;3.60;99.90;;;;;;4951102;28;20433;-76
2022/04/01 11:43:04;;;;;;;5.57;5.00;;;3.60;99.90;;;;;;4952162;28;20411;-76
2022/04/01 11:45:35;;;;;;;4.47;4.10;;;3.60;99.90;;;;;;4953623;28;20457;-76
2022/04/01 11:48:22;;;;;;;4.10;3.80;;;3.60;99.90;;;;;;4954729;28;20472;-77
2022/04/01 11:50:51;;;;;;;5.20;4.07;;;3.70;99.90;;;;;;4952512;28;20968;-75
2022/04/01 11:53:32;;;;;;;5.63;5.13;;;3.70;99.90;;;;;;4955280;28;20464;-77
2022/04/01 11:56:00;;;;;;;5.53;5.03;;;3.70;99.90;;;;;;4954269;28;20562;-75
2022/04/01 11:58:27;;;;;;;6.23;5.63;;;3.90;99.90;;;;;;4955828;28;20416;-74
2022/04/01 12:00:53;;;;;;;5.37;4.97;;;3.80;99.90;;;;;;4954097;28;20512;-74
2022/04/01 12:03:19;;;;;;;5.77;5.27;;;3.80;99.90;;;;;;4955624;28;20417;-75
2022/04/01 12:05:45;;;;;;;7.90;5.30;;;3.80;99.90;;;;;;4954183;28;20434;-75
2022/04/01 12:10:57;;;;;;;5.83;5.27;;;3.70;99.90;;;;;;4955526;28;20476;-74
2022/04/01 12:13:26;;;;;;;7.23;6.23;;;3.70;99.90;;;;;;4955583;28;20652;-75
2022/04/01 12:15:53;;;;;;;5.90;5.40;;;3.60;99.90;;;;;;4954955;28;20496;-75
2022/04/01 12:18:20;;;;;;;6.93;6.03;;;3.60;99.90;;;;;;4954328;28;20425;-75
2022/04/01 12:20:55;;;;;;;7.77;6.40;;;3.60;99.90;;;;;;4955217;28;20977;-74
2022/04/01 12:23:22;;;;;;;8.53;7.10;;;3.60;99.90;;;;;;4955249;28;20451;-74
2022/04/01 12:25:50;;;;;;;7.13;6.47;;;3.70;99.90;;;;;;4956189;28;20415;-73
2022/04/01 12:28:18;;;;;;;7.77;6.53;;;3.70;99.90;;;;;;4954576;28;20430;-74
2022/04/01 12:30:47;;;;;;;9.83;6.43;;;3.80;99.90;;;;;;4955082;28;20422;-75
2022/04/01 12:33:16;;;;;;;7.43;6.70;;;3.90;99.90;;;;;;4955389;28;20434;-75
2022/04/01 12:35:58;;;;;;;7.53;6.83;;;3.90;99.90;;;;;;4955101;29;20484;-74
2022/04/01 12:38:25;;;;;;;7.70;6.70;;;4.00;99.90;;;;;;4955394;28;20414;-75
2022/04/01 12:40:56;;;;;;;7.27;6.57;;;3.80;99.90;;;;;;4955376;28;20413;-75
2022/04/01 12:43:31;;;;;;;6.70;6.10;;;3.80;99.90;;;;;;4955156;28;20500;-75
2022/04/01 12:46:23;;;;;;;7.17;6.57;;;3.80;99.90;;;;;;4956963;28;20424;-75
2022/04/01 12:48:53;;;;;;;6.67;6.07;;;3.80;99.90;;;;;;4974429;28;20495;-74
2022/04/01 12:51:35;;;;;;;7.60;6.90;;;3.80;99.90;;;;;;4973792;28;20832;-74
2022/04/01 12:54:03;;;;;;;7.90;6.93;;;3.80;99.90;;;;;;4974120;28;20431;-75
2022/04/01 12:56:34;;;;;;;8.03;7.23;;;3.70;99.90;;;;;;4973406;28;20487;-75
2022/04/01 12:59:07;;;;;;;8.53;7.63;;;3.50;99.90;;;;;;4966625;28;20409;-75
2022/04/01 13:01:35;;;;;;;10.47;7.37;;;3.40;99.90;;;;;;4953714;28;20764;-76
2022/04/01 13:04:01;;;;;;;9.67;7.70;;;3.30;99.90;;;;;;4953279;29;20429;-75
2022/04/01 13:06:29;;;;;;;10.20;7.30;;;3.30;99.90;;;;;;4954211;29;20425;-75
2022/04/01 13:09:03;;;;;;;11.17;7.60;;;3.40;99.90;;;;;;4954592;28;20531;-76
2022/04/01 13:11:35;;;;;;;9.40;8.40;;;3.30;99.90;;;;;;4954314;28;20446;-75
2022/04/01 13:14:01;;;;;;;8.50;7.70;;;3.30;99.90;;;;;;4954841;28;20506;-76
2022/04/01 13:16:37;;;;;;;10.17;8.07;;;3.30;99.90;;;;;;4956990;28;20532;-75
2022/04/01 13:19:21;;;;;;;9.60;8.43;;;3.20;99.90;;;;;;4954899;28;20417;-76
2022/04/01 13:21:48;;;;;;;10.23;8.00;;;3.20;99.90;;;;;;4953965;28;20433;-75
2022/04/01 13:24:22;;;;;;;9.40;8.13;;;3.00;99.90;;;;;;4954471;28;20791;-76
2022/04/01 13:26:48;;;;;;;15.27;11.27;;;3.00;99.90;;;;;;4954449;28;20401;-75
2022/04/01 13:29:13;;;;;;;13.83;9.17;;;3.00;99.90;;;;;;4954480;28;20499;-76
2022/04/01 13:31:40;;;;;;;9.60;7.90;;;3.10;99.90;;;;;;4953984;28;20581;-77
2022/04/01 13:34:07;;;;;;;9.57;8.47;;;3.10;99.90;;;;;;4952720;29;20319;-76
2022/04/01 13:36:33;;;;;;;9.73;8.40;;;3.00;99.90;;;;;;4953925;28;20473;-76
2022/04/01 13:38:59;;;;;;;8.93;7.70;;;3.00;99.90;;;;;;4953919;28;20918;-76
2022/04/01 13:41:24;;;;;;;10.43;8.10;;;3.00;99.90;;;;;;4953400;28;20435;-75
2022/04/01 13:47:02;;;;;;;9.63;8.23;;;3.10;99.90;;;;;;4876737;29;20252;-75
2022/04/01 13:49:28;;;;;;;10.20;8.40;;;3.00;99.90;;;;;;4945391;28;20414;-76
2022/04/01 13:51:54;;;;;;;9.47;7.70;;;3.00;99.90;;;;;;4952561;28;20451;-76
2022/04/01 13:54:21;;;;;;;9.50;6.93;;;2.90;99.90;;;;;;4953229;29;20436;-76
2022/04/01 13:56:47;;;;;;;11.30;8.80;;;2.90;99.90;;;;;;4953520;29;20567;-76
2022/04/01 13:59:15;;;;;;;10.30;8.77;;;2.90;99.90;;;;;;4952616;29;20516;-76
2022/04/01 14:01:41;;;;;;;10.43;8.70;;;3.00;99.90;;;;;;4952870;28;20201;-76
2022/04/01 14:04:07;;;;;;;9.67;8.67;;;3.00;99.90;;;;;;4953894;28;20420;-77
2022/04/01 14:06:34;;;;;;;12.67;9.47;;;3.00;99.90;;;;;;4953102;28;20428;-78
2022/04/01 14:09:06;;;;;;;12.40;10.03;;;2.80;99.90;;;;;;4955255;28;20442;-78
2022/04/01 14:11:35;;;;;;;15.50;11.37;;;2.70;99.90;;;;;;4969223;28;20490;-77
2022/04/01 14:14:07;;;;;;;15.70;10.77;;;2.70;99.90;;;;;;4955344;28;20401;-77
2022/04/01 14:16:35;;;;;;;14.87;10.70;;;2.70;99.90;;;;;;4953795;28;20497;-76
2022/04/01 14:19:03;;;;;;;13.03;10.60;;;2.70;99.90;;;;;;4953161;28;20415;-78
2022/04/01 14:21:29;;;;;;;11.80;10.00;;;2.70;99.90;;;;;;4948273;28;20449;-77
2022/04/01 14:23:54;;;;;;;17.07;10.53;;;2.80;99.90;;;;;;4953393;28;20424;-78
2022/04/01 14:26:20;;;;;;;15.07;11.33;;;2.70;99.90;;;;;;4953190;28;20439;-77
2022/04/01 14:28:46;;;;;;;12.47;10.33;;;2.70;99.90;;;;;;4952099;28;20187;-77
2022/04/01 14:31:12;;;;;;;15.00;10.33;;;2.60;99.90;;;;;;4952912;28;20980;-77
2022/04/01 14:33:37;;;;;;;17.23;11.53;;;2.60;99.90;;;;;;4949500;28;20433;-76
2022/04/01 14:36:03;;;;;;;12.00;10.53;;;2.60;99.90;;;;;;4950233;28;20212;-78
2022/04/01 14:38:29;;;;;;;14.23;12.20;;;2.70;99.90;;;;;;4952562;28;20238;-77